createdAt,value
2022-10-18T00:02:12.230Z,99658.22
2022-10-18T00:04:39.269Z,99657.70
2022-10-18T00:07:06.195Z,99652.04
2022-10-18T00:09:33.444Z,99649.95
2022-10-18T00:12:00.933Z,99646.78
2022-10-18T00:14:27.853Z,99644.23
2022-10-18T00:16:54.749Z,99639.61
2022-10-18T00:19:24.717Z,99641.42
2022-10-18T00:21:54.007Z,99640.48
2022-10-18T00:24:20.958Z,99635.00
2022-10-18T00:26:47.864Z,99635.56
2022-10-18T00:29:15.481Z,99636.33
2022-10-18T00:31:43.623Z,99632.29
2022-10-18T00:34:12.554Z,99630.30
2022-10-18T00:36:39.417Z,99625.19
2022-10-18T00:39:06.920Z,99622.80
2022-10-18T00:41:34.967Z,99619.48
2022-10-18T00:44:01.883Z,99618.58
2022-10-18T00:46:50.469Z,99616.73
2022-10-18T00:49:22.631Z,99619.70
2022-10-18T00:51:56.235Z,99617.52
2022-10-18T00:54:23.541Z,99615.86
2022-10-18T00:56:50.592Z,99609.85
2022-10-18T00:59:18.045Z,99608.13
2022-10-18T01:01:45.340Z,99609.52
2022-10-18T01:04:13.924Z,99607.52
2022-10-18T01:06:47.522Z,99603.17
2022-10-18T01:09:24.612Z,99601.19
2022-10-18T01:12:33.273Z,99599.15
2022-10-18T01:15:23.858Z,99596.84
2022-10-18T01:18:09.193Z,99590.39
2022-10-18T01:21:00.658Z,99589.41
2022-10-18T01:23:46.018Z,99584.73
2022-10-18T01:26:35.722Z,99582.90
2022-10-18T01:29:35.101Z,99577.34
2022-10-18T01:32:03.812Z,99576.13
2022-10-18T01:34:32.926Z,99571.07
2022-10-18T01:36:59.782Z,99570.64
2022-10-18T01:39:31.496Z,99570.58
2022-10-18T01:41:58.687Z,99563.20
2022-10-18T01:44:26.678Z,99564.40
2022-10-18T01:46:54.389Z,99563.50
2022-10-18T01:49:21.403Z,99560.79
2022-10-18T01:51:48.448Z,99560.23
2022-10-18T01:54:27.900Z,99555.18
2022-10-18T01:57:25.229Z,99552.41
2022-10-18T01:59:55.482Z,99549.76
2022-10-18T02:02:29.166Z,99543.06
2022-10-18T02:05:02.901Z,99540.40
2022-10-18T02:07:43.673Z,99539.24
2022-10-18T02:10:31.791Z,99538.46
2022-10-18T02:12:58.756Z,99535.71
2022-10-18T02:15:34.712Z,99531.66
2022-10-18T02:18:02.527Z,99534.11
2022-10-18T02:20:29.469Z,99531.49
2022-10-18T02:22:56.559Z,99529.14
2022-10-18T02:25:25.033Z,99525.20
2022-10-18T02:27:54.445Z,99524.57
2022-10-18T02:30:23.333Z,99526.46
2022-10-18T02:33:14.956Z,99524.73
2022-10-18T02:35:45.325Z,99522.55
2022-10-18T02:38:12.425Z,99515.59
2022-10-18T02:40:39.335Z,99517.02
2022-10-18T02:43:06.507Z,99511.52
2022-10-18T02:45:33.572Z,99510.09
2022-10-18T02:48:00.529Z,99514.65
2022-10-18T02:50:27.466Z,99511.37
2022-10-18T02:52:54.538Z,99514.58
2022-10-18T02:55:21.685Z,99511.83
2022-10-18T02:57:48.700Z,99508.69
2022-10-18T03:00:15.836Z,99505.41
2022-10-18T03:02:42.747Z,99507.42
2022-10-18T03:05:09.778Z,99504.84
2022-10-18T03:07:36.739Z,99503.63
2022-10-18T03:10:03.830Z,99500.53
2022-10-18T03:12:30.903Z,99501.48
2022-10-18T03:14:57.822Z,99501.13
2022-10-18T03:17:24.792Z,99497.38
2022-10-18T03:19:51.827Z,99496.73
2022-10-18T03:22:18.822Z,99495.65
2022-10-18T03:24:45.772Z,99493.61
2022-10-18T03:27:12.803Z,99489.34
2022-10-18T03:29:40.664Z,99487.48
2022-10-18T03:32:07.580Z,99488.16
2022-10-18T03:34:34.670Z,99489.33
2022-10-18T03:37:04.738Z,99485.66
2022-10-18T03:39:32.443Z,99488.86
2022-10-18T03:41:59.396Z,99488.42
2022-10-18T03:44:26.276Z,99485.87
2022-10-18T03:46:53.240Z,99485.39
2022-10-18T03:49:20.275Z,99483.20
2022-10-18T03:51:47.137Z,99483.71
2022-10-18T03:54:14.034Z,99481.59
2022-10-18T03:56:40.909Z,99483.29
2022-10-18T03:59:07.853Z,99478.69
2022-10-18T04:01:34.689Z,99471.79
2022-10-18T04:04:01.683Z,99473.95
2022-10-18T04:06:28.797Z,99470.87
2022-10-18T04:08:56.078Z,99471.25
2022-10-18T04:11:23.090Z,99467.08
2022-10-18T04:13:50.488Z,99468.36
2022-10-18T04:16:17.418Z,99466.42
2022-10-18T04:18:44.334Z,99462.25
2022-10-18T04:21:11.269Z,99466.36
2022-10-18T04:23:38.992Z,99459.89
2022-10-18T04:26:06.600Z,99458.10
2022-10-18T04:28:34.211Z,99455.17
2022-10-18T04:31:01.332Z,99453.68
2022-10-18T04:33:28.701Z,99452.84
2022-10-18T04:35:55.626Z,99450.99
2022-10-18T04:38:22.531Z,99446.75
2022-10-18T04:40:49.497Z,99446.46
2022-10-18T04:43:16.668Z,99443.94
2022-10-18T04:45:45.723Z,99439.08
2022-10-18T04:48:12.773Z,99440.80
2022-10-18T04:50:39.807Z,99434.23
2022-10-18T04:53:13.723Z,99430.58
2022-10-18T04:55:43.898Z,99432.15
2022-10-18T04:58:11.087Z,99429.95
2022-10-18T05:00:40.085Z,99432.23
2022-10-18T05:03:07.770Z,99428.42
2022-10-18T05:05:49.662Z,99430.42
2022-10-18T05:08:22.241Z,99430.66
2022-10-18T05:10:49.157Z,99430.00
2022-10-18T05:13:16.289Z,99431.77
2022-10-18T05:15:43.233Z,99435.05
2022-10-18T05:18:10.074Z,99435.76
2022-10-18T05:20:37.173Z,99439.62
2022-10-18T05:23:04.377Z,99439.36
2022-10-18T05:25:31.261Z,99436.41
2022-10-18T05:28:00.929Z,99435.11
2022-10-18T05:32:53.152Z,99437.08
2022-10-18T05:35:20.063Z,99436.85
2022-10-18T05:37:47.204Z,99434.77
2022-10-18T05:40:14.261Z,99434.56
2022-10-18T05:42:41.248Z,99438.10
2022-10-18T05:45:08.969Z,99431.33
2022-10-18T05:50:08.374Z,99440.54
2022-10-18T05:52:35.356Z,99441.46
2022-10-18T05:55:02.379Z,99442.75
2022-10-18T05:57:29.614Z,99445.77
2022-10-18T05:59:57.011Z,99440.98
2022-10-18T06:02:24.126Z,99438.95
2022-10-18T06:04:51.157Z,99438.70
2022-10-18T06:07:18.228Z,99435.13
2022-10-18T06:09:45.168Z,99434.22
2022-10-18T06:12:12.075Z,99436.21
2022-10-18T06:14:39.032Z,99435.07
2022-10-18T06:17:05.955Z,99434.73
2022-10-18T06:19:32.943Z,99432.64
2022-10-18T06:22:00.070Z,99427.70
2022-10-18T06:24:27.488Z,99424.52
2022-10-18T06:26:54.364Z,99426.91
2022-10-18T06:29:21.308Z,99430.10
2022-10-18T06:31:48.164Z,99426.55
2022-10-18T06:34:15.080Z,99433.39
2022-10-18T06:36:41.965Z,99430.48
2022-10-18T06:39:08.891Z,99435.52
2022-10-18T06:41:35.828Z,99431.30
2022-10-18T06:44:17.109Z,99432.98
2022-10-18T06:46:45.181Z,99433.95
2022-10-18T06:49:14.089Z,99428.23
2022-10-18T06:51:43.813Z,99426.42
2022-10-18T06:54:17.865Z,99424.40
2022-10-18T06:56:45.595Z,99420.21
2022-10-18T06:59:15.069Z,99416.40
2022-10-18T07:01:42.144Z,99416.58
2022-10-18T07:04:09.132Z,99415.19
2022-10-18T07:06:36.168Z,99418.33
2022-10-18T07:09:03.966Z,99419.41
2022-10-18T07:11:30.897Z,99419.35
2022-10-18T07:14:05.388Z,99415.05
2022-10-18T07:16:32.864Z,99416.40
2022-10-18T07:18:59.769Z,99412.20
2022-10-18T07:21:29.968Z,99414.31
2022-10-18T07:23:56.946Z,99415.30
2022-10-18T07:26:29.264Z,99413.80
2022-10-18T07:28:58.550Z,99406.85
2022-10-18T07:31:25.888Z,99405.61
2022-10-18T07:33:53.069Z,99401.29
2022-10-18T07:36:21.392Z,99397.13
2022-10-18T07:38:49.325Z,99394.98
2022-10-18T07:41:16.316Z,99388.85
2022-10-18T07:43:47.542Z,99388.13
2022-10-18T07:46:15.058Z,99385.77
2022-10-18T07:48:42.103Z,99385.33
2022-10-18T07:51:09.382Z,99383.91
2022-10-18T07:53:36.667Z,99382.83
2022-10-18T07:56:16.499Z,99380.05
2022-10-18T07:58:44.364Z,99375.59
2022-10-18T08:01:11.818Z,99374.23
2022-10-18T08:03:38.962Z,99373.34
2022-10-18T08:06:08.847Z,99368.03
2022-10-18T08:08:36.155Z,99367.34
2022-10-18T08:11:08.016Z,99369.05
2022-10-18T08:13:34.967Z,99372.38
2022-10-18T08:16:06.067Z,99365.89
2022-10-18T08:18:33.290Z,99359.20
2022-10-18T08:21:04.387Z,99358.39
2022-10-18T08:23:31.327Z,99359.48
2022-10-18T08:26:02.071Z,99353.33
2022-10-18T08:28:29.603Z,99347.88
2022-10-18T08:30:56.633Z,99345.47
2022-10-18T08:33:23.652Z,99348.79
2022-10-18T08:36:00.818Z,99347.70
2022-10-18T08:38:31.533Z,99346.36
2022-10-18T08:41:02.694Z,99342.23
2022-10-18T08:43:39.012Z,99339.29
2022-10-18T08:46:06.045Z,99332.90
2022-10-18T08:48:36.100Z,99331.71
2022-10-18T08:51:04.290Z,99329.86
2022-10-18T08:53:40.184Z,99323.17
2022-10-18T08:56:14.482Z,99326.59
2022-10-18T08:58:43.088Z,99321.21
2022-10-18T09:01:16.023Z,99315.91
2022-10-18T09:04:11.001Z,99315.60
2022-10-18T09:07:15.423Z,99314.59
2022-10-18T09:10:07.338Z,99313.51
2022-10-18T09:13:04.878Z,99312.19
2022-10-18T09:15:54.254Z,99302.52
2022-10-18T09:18:42.443Z,99298.23
2022-10-18T09:21:17.940Z,99292.61
2022-10-18T09:24:00.486Z,99291.64
2022-10-18T09:26:27.466Z,99287.46
2022-10-18T09:29:13.364Z,99280.40
2022-10-18T09:32:07.018Z,99279.05
2022-10-18T09:34:48.021Z,99275.70
2022-10-18T09:37:16.868Z,99277.84
2022-10-18T09:39:44.149Z,99277.78
2022-10-18T09:42:17.314Z,99278.70
2022-10-18T09:44:49.359Z,99274.67
2022-10-18T09:47:21.510Z,99269.64
2022-10-18T09:49:54.342Z,99268.80
2022-10-18T09:52:26.850Z,99263.20
2022-10-18T09:55:00.160Z,99254.89
2022-10-18T09:57:41.606Z,99245.77
2022-10-18T10:00:23.014Z,99241.11
2022-10-18T10:02:50.012Z,99235.41
2022-10-18T10:05:17.185Z,99232.70
2022-10-18T10:07:47.564Z,99227.35
2022-10-18T10:10:14.679Z,99222.79
2022-10-18T10:12:44.080Z,99222.15
2022-10-18T10:15:22.897Z,99217.33
2022-10-18T10:18:01.799Z,99216.83
2022-10-18T10:20:50.812Z,99209.87
2022-10-18T10:23:32.760Z,99206.38
2022-10-18T10:26:05.218Z,99199.98
2022-10-18T10:28:35.201Z,99198.28
2022-10-18T10:31:33.318Z,99194.96
2022-10-18T10:34:06.486Z,99193.54
2022-10-18T10:36:34.278Z,99190.65
2022-10-18T10:39:12.124Z,99186.07
2022-10-18T10:41:40.474Z,99179.59
2022-10-18T10:44:19.292Z,99170.70
2022-10-18T10:46:46.361Z,99165.99
2022-10-18T10:49:39.218Z,99160.38
2022-10-18T10:52:15.441Z,99156.11
2022-10-18T10:54:52.207Z,99154.80
2022-10-18T10:57:27.035Z,99147.64
2022-10-18T10:59:55.678Z,99143.27
2022-10-18T11:02:33.394Z,99137.31
2022-10-18T11:05:22.749Z,99134.46
2022-10-18T11:10:08.020Z,99124.39
2022-10-18T11:12:37.233Z,99116.86
2022-10-18T11:15:12.167Z,99118.05
2022-10-18T11:17:46.311Z,99113.91
2022-10-18T11:20:19.757Z,99108.66
2022-10-18T11:22:54.177Z,99103.19
2022-10-18T11:25:21.349Z,99099.23
2022-10-18T11:27:57.612Z,99100.79
